Hillsdale, North Carolina
Current Conditions -  °F | °C
As of 5:54 AM on Tuesday 21 Oct 2014 (Local Time) from KINT Reporting Station
Clear Clear  
Wind Chill: 54°   Ceiling: Unl
Heat Index: 54°   Visibility: 10mi
Dew Point: 49°   Wind: 0mph
Humidity: 83%   Direction: NA
Pressure: 29.93"   Gusts: NA
Location:  36.0107°N, 80.4503°W
Report Text: KINT 210954Z AUTO 00000KT 10SM CLR 12/09 A2993 RMK AO2 SLP131 T01220094
Loading
Personal Weather Stations






























Interactive Weather Map
Tropical Storm Tracking
New forecast layout! Learn more

10-Day Weather Forecast

Advertisements
Track Severe Weather on mobile